createdAt,value
2022-10-28T00:00:18.219Z,1013.24
2022-10-28T00:01:18.260Z,1013.22
2022-10-28T00:02:18.269Z,1013.21
2022-10-28T00:03:18.182Z,1013.19
2022-10-28T00:04:18.254Z,1013.20
2022-10-28T00:05:18.160Z,1013.16
2022-10-28T00:06:18.158Z,1013.15
2022-10-28T00:07:18.137Z,1013.17
2022-10-28T00:08:18.130Z,1013.12
2022-10-28T00:09:18.126Z,1013.16
2022-10-28T00:10:18.106Z,1013.14
2022-10-28T00:11:18.090Z,1013.14
2022-10-28T00:12:18.096Z,1013.15
2022-10-28T00:13:18.068Z,1013.13
2022-10-28T00:14:18.083Z,1013.16
2022-10-28T00:15:18.046Z,1013.17
2022-10-28T00:16:18.042Z,1013.12
2022-10-28T00:17:18.068Z,1013.19
2022-10-28T00:18:18.017Z,1013.14
2022-10-28T00:19:18.008Z,1013.16
2022-10-28T00:20:17.995Z,1013.11
2022-10-28T00:21:17.979Z,1013.09
2022-10-28T00:22:17.971Z,1013.10
2022-10-28T00:23:17.959Z,1013.09
2022-10-28T00:24:17.958Z,1013.10
2022-10-28T00:25:17.933Z,1013.09
2022-10-28T00:26:17.929Z,1013.11
2022-10-28T00:27:17.910Z,1013.10
2022-10-28T00:28:17.902Z,1013.10
2022-10-28T00:29:17.895Z,1013.07
2022-10-28T00:30:17.908Z,1013.07
2022-10-28T00:31:17.864Z,1013.03
2022-10-28T00:32:17.859Z,1013.03
2022-10-28T00:33:17.843Z,1013.01
2022-10-28T00:34:17.846Z,1012.89
2022-10-28T00:35:17.823Z,1012.87
2022-10-28T00:36:17.814Z,1012.95
2022-10-28T00:37:17.800Z,1012.97
2022-10-28T00:38:17.790Z,1012.91
2022-10-28T00:39:17.785Z,1012.88
2022-10-28T00:40:17.767Z,1012.92
2022-10-28T00:41:17.755Z,1012.99
2022-10-28T00:42:17.744Z,1012.93
2022-10-28T00:43:17.764Z,1012.97
2022-10-28T00:44:17.727Z,1012.97
2022-10-28T00:45:17.711Z,1012.91
2022-10-28T00:46:17.698Z,1012.98
2022-10-28T00:47:17.689Z,1012.95
2022-10-28T00:48:17.672Z,1012.95
2022-10-28T00:49:17.676Z,1012.93
2022-10-28T00:50:17.652Z,1012.91
2022-10-28T00:51:17.643Z,1012.90
2022-10-28T00:52:17.627Z,1012.94
2022-10-28T00:53:17.621Z,1012.88
2022-10-28T00:54:17.606Z,1012.88
2022-10-28T00:55:17.608Z,1012.89
2022-10-28T00:56:17.665Z,1012.87
2022-10-28T00:57:17.587Z,1012.82
2022-10-28T00:58:17.559Z,1012.87
2022-10-28T00:59:17.551Z,1012.86
2022-10-28T01:00:17.545Z,1012.85
2022-10-28T01:01:17.606Z,1012.83
2022-10-28T01:02:17.623Z,1012.80
2022-10-28T01:03:17.507Z,1012.80
2022-10-28T01:04:17.506Z,1012.81
2022-10-28T01:05:17.492Z,1012.82
2022-10-28T01:06:17.474Z,1012.79
2022-10-28T01:07:17.461Z,1012.76
2022-10-28T01:08:17.454Z,1012.76
2022-10-28T01:09:17.465Z,1012.76
2022-10-28T01:10:17.438Z,1012.76
2022-10-28T01:11:17.415Z,1012.76
2022-10-28T01:12:17.400Z,1012.79
2022-10-28T01:13:17.407Z,1012.77
2022-10-28T01:14:17.377Z,1012.74
2022-10-28T01:15:17.381Z,1012.74
2022-10-28T01:16:17.356Z,1012.71
2022-10-28T01:17:17.348Z,1012.77
2022-10-28T01:18:17.332Z,1012.69
2022-10-28T01:19:17.326Z,1012.70
2022-10-28T01:20:17.317Z,1012.71
2022-10-28T01:21:17.302Z,1012.67
2022-10-28T01:22:17.352Z,1012.70
2022-10-28T01:23:17.280Z,1012.71
2022-10-28T01:24:17.266Z,1012.66
2022-10-28T01:25:17.270Z,1012.64
2022-10-28T01:26:17.241Z,1012.63
2022-10-28T01:27:17.245Z,1012.68
2022-10-28T01:28:17.218Z,1012.59
2022-10-28T01:29:17.212Z,1012.58
2022-10-28T01:30:17.204Z,1012.60
2022-10-28T01:31:17.225Z,1012.62
2022-10-28T01:32:17.175Z,1012.61
2022-10-28T01:33:17.167Z,1012.56
2022-10-28T01:34:17.152Z,1012.55
2022-10-28T01:35:17.206Z,1012.53
2022-10-28T01:36:17.129Z,1012.51
2022-10-28T01:37:17.126Z,1012.48
2022-10-28T01:38:17.107Z,1012.51
2022-10-28T01:39:17.100Z,1012.49
2022-10-28T01:40:17.092Z,1012.47
2022-10-28T01:41:17.076Z,1012.48
2022-10-28T01:42:17.060Z,1012.45
2022-10-28T01:43:17.056Z,1012.46
2022-10-28T01:44:17.040Z,1012.46
2022-10-28T01:45:17.049Z,1012.47
2022-10-28T01:46:17.016Z,1012.45
2022-10-28T01:47:17.009Z,1012.45
2022-10-28T01:48:16.993Z,1012.47
2022-10-28T01:49:16.986Z,1012.44
2022-10-28T01:50:16.969Z,1012.40
2022-10-28T01:51:16.971Z,1012.37
2022-10-28T01:52:16.947Z,1012.39
2022-10-28T01:53:16.945Z,1012.35
2022-10-28T01:54:16.924Z,1012.35
2022-10-28T01:55:16.918Z,1012.31
2022-10-28T01:56:16.911Z,1012.33
2022-10-28T01:57:16.895Z,1012.33
2022-10-28T01:58:16.881Z,1012.26
2022-10-28T01:59:16.872Z,1012.31
2022-10-28T02:00:16.858Z,1012.28
2022-10-28T02:01:17.046Z,1012.29
2022-10-28T02:02:16.835Z,1012.28
2022-10-28T02:03:16.831Z,1012.24
2022-10-28T02:04:16.812Z,1012.27
2022-10-28T02:05:16.808Z,1012.25
2022-10-28T02:06:16.798Z,1012.24
2022-10-28T02:07:16.783Z,1012.19
2022-10-28T02:08:16.766Z,1012.17
2022-10-28T02:09:16.759Z,1012.18
2022-10-28T02:10:16.743Z,1012.14
2022-10-28T02:11:16.746Z,1012.11
2022-10-28T02:12:16.722Z,1012.10
2022-10-28T02:13:16.717Z,1012.08
2022-10-28T02:14:16.700Z,1012.08
2022-10-28T02:15:16.693Z,1012.07
2022-10-28T02:16:16.704Z,1012.09
2022-10-28T02:17:16.664Z,1012.13
2022-10-28T02:18:16.658Z,1012.14
2022-10-28T02:19:16.642Z,1012.15
2022-10-28T02:20:16.636Z,1012.15
2022-10-28T02:21:16.620Z,1012.14
2022-10-28T02:22:16.623Z,1012.17
2022-10-28T02:23:16.597Z,1012.11
2022-10-28T02:24:16.593Z,1012.15
2022-10-28T02:25:16.578Z,1012.15
2022-10-28T02:26:16.571Z,1012.21
2022-10-28T02:27:16.561Z,1012.16
2022-10-28T02:28:16.551Z,1012.14
2022-10-28T02:29:16.531Z,1012.15
2022-10-28T02:30:16.522Z,1012.14
2022-10-28T02:31:16.514Z,1012.12
2022-10-28T02:32:16.508Z,1012.08
2022-10-28T02:33:16.487Z,1012.10
2022-10-28T02:34:16.477Z,1012.14
2022-10-28T02:35:16.461Z,1012.16
2022-10-28T02:36:16.454Z,1012.15
2022-10-28T02:37:16.446Z,1012.11
2022-10-28T02:38:16.432Z,1012.11
2022-10-28T02:39:16.415Z,1012.11
2022-10-28T02:40:16.408Z,1012.07
2022-10-28T02:41:16.394Z,1012.09
2022-10-28T02:42:16.396Z,1012.06
2022-10-28T02:43:16.370Z,1012.04
2022-10-28T02:44:16.363Z,1012.07
2022-10-28T02:45:16.352Z,1012.06
2022-10-28T02:46:16.343Z,1012.01
2022-10-28T02:47:16.335Z,1011.99
2022-10-28T02:48:16.319Z,1011.97
2022-10-28T02:49:16.302Z,1011.99
2022-10-28T02:50:16.296Z,1012.03
2022-10-28T02:51:16.279Z,1011.96
2022-10-28T02:52:16.282Z,1012.06
2022-10-28T02:53:16.328Z,1011.99
2022-10-28T02:54:16.252Z,1012.02
2022-10-28T02:55:16.238Z,1011.99
2022-10-28T02:56:16.229Z,1011.97
2022-10-28T02:57:16.225Z,1011.94
2022-10-28T02:58:16.208Z,1011.92
2022-10-28T02:59:16.194Z,1011.92
2022-10-28T03:00:16.185Z,1011.93
2022-10-28T03:01:16.289Z,1011.94
2022-10-28T03:02:16.207Z,1011.90
2022-10-28T03:03:16.160Z,1011.93
2022-10-28T03:04:16.138Z,1011.94
2022-10-28T03:05:16.126Z,1011.87
2022-10-28T03:06:16.174Z,1011.86
2022-10-28T03:07:16.112Z,1011.88
2022-10-28T03:08:16.094Z,1011.89
2022-10-28T03:09:16.082Z,1011.84
2022-10-28T03:10:16.079Z,1011.86
2022-10-28T03:11:16.061Z,1011.86
2022-10-28T03:12:16.059Z,1011.83
2022-10-28T03:13:16.037Z,1011.80
2022-10-28T03:14:16.029Z,1011.83
2022-10-28T03:15:16.013Z,1011.78
2022-10-28T03:16:16.007Z,1011.81
2022-10-28T03:17:15.999Z,1011.82
2022-10-28T03:18:15.985Z,1011.78
2022-10-28T03:19:15.975Z,1011.78
2022-10-28T03:20:15.968Z,1011.78
2022-10-28T03:21:15.948Z,1011.80
2022-10-28T03:22:15.955Z,1011.81
2022-10-28T03:23:15.925Z,1011.77
2022-10-28T03:24:15.920Z,1011.78
2022-10-28T03:25:15.902Z,1011.79
2022-10-28T03:26:15.896Z,1011.80
2022-10-28T03:27:15.891Z,1011.76
2022-10-28T03:28:15.876Z,1011.77
2022-10-28T03:29:15.861Z,1011.77
2022-10-28T03:30:15.852Z,1011.79
2022-10-28T03:31:15.839Z,1011.75
2022-10-28T03:32:15.878Z,1011.74
2022-10-28T03:33:15.824Z,1011.74
2022-10-28T03:34:15.815Z,1011.76
2022-10-28T03:35:15.795Z,1011.77
2022-10-28T03:36:15.787Z,1011.78
2022-10-28T03:37:15.772Z,1011.78
2022-10-28T03:38:15.774Z,1011.74
2022-10-28T03:39:15.750Z,1011.75
2022-10-28T03:40:15.742Z,1011.68
2022-10-28T03:41:15.728Z,1011.67
2022-10-28T03:42:15.721Z,1011.69
2022-10-28T03:43:15.719Z,1011.63
2022-10-28T03:44:15.694Z,1011.60
2022-10-28T03:45:15.687Z,1011.59
2022-10-28T03:46:15.672Z,1011.60
2022-10-28T03:47:15.665Z,1011.55
2022-10-28T03:48:15.658Z,1011.59
2022-10-28T03:49:15.643Z,1011.55
2022-10-28T03:50:15.629Z,1011.59
2022-10-28T03:51:15.621Z,1011.56
2022-10-28T03:52:15.608Z,1011.56
2022-10-28T03:53:15.609Z,1011.49
2022-10-28T03:54:15.586Z,1011.54
2022-10-28T03:55:15.580Z,1011.57
2022-10-28T03:56:15.562Z,1011.53
2022-10-28T03:57:15.562Z,1011.57
2022-10-28T03:58:15.550Z,1011.60
2022-10-28T03:59:19.256Z,1011.58
2022-10-28T04:00:15.612Z,1011.60
2022-10-28T04:01:15.598Z,1011.56
2022-10-28T04:02:15.759Z,1011.56
2022-10-28T04:03:15.496Z,1011.58
2022-10-28T04:04:15.471Z,1011.61
2022-10-28T04:05:15.466Z,1011.58
2022-10-28T04:06:15.452Z,1011.62
2022-10-28T04:07:15.445Z,1011.57
2022-10-28T04:08:15.438Z,1011.60
2022-10-28T04:09:15.455Z,1011.58
2022-10-28T04:10:15.407Z,1011.57
2022-10-28T04:11:15.399Z,1011.56
2022-10-28T04:12:15.386Z,1011.56
2022-10-28T04:13:15.395Z,1011.54
2022-10-28T04:14:15.405Z,1011.56
2022-10-28T04:15:15.358Z,1011.58
2022-10-28T04:16:15.340Z,1011.58
2022-10-28T04:17:15.332Z,1011.49
2022-10-28T04:18:15.355Z,1011.52
2022-10-28T04:19:15.311Z,1011.49
2022-10-28T04:20:15.300Z,1011.48
2022-10-28T04:21:15.288Z,1011.50
2022-10-28T04:22:15.273Z,1011.50
2022-10-28T04:23:15.276Z,1011.46
2022-10-28T04:24:15.251Z,1011.53
2022-10-28T04:26:15.232Z,1011.47
2022-10-28T04:27:15.241Z,1011.43
2022-10-28T04:28:15.206Z,1011.43
2022-10-28T04:29:15.201Z,1011.42
2022-10-28T04:30:15.183Z,1011.45
2022-10-28T04:31:15.177Z,1011.46
2022-10-28T04:32:15.160Z,1011.48
2022-10-28T04:33:15.162Z,1011.48
2022-10-28T04:34:15.138Z,1011.43
2022-10-28T04:35:15.131Z,1011.46
2022-10-28T04:36:15.117Z,1011.44
2022-10-28T04:37:20.386Z,1011.41
2022-10-28T04:38:15.236Z,1011.40
2022-10-28T04:39:15.087Z,1011.44
2022-10-28T04:40:15.070Z,1011.45
2022-10-28T04:41:15.063Z,1011.41
2022-10-28T04:42:15.053Z,1011.42
2022-10-28T04:43:15.050Z,1011.42
2022-10-28T04:44:15.052Z,1011.42
2022-10-28T04:45:15.019Z,1011.48
2022-10-28T04:46:15.006Z,1011.45
2022-10-28T04:47:15.006Z,1011.48
2022-10-28T04:48:14.981Z,1011.46
2022-10-28T04:49:14.977Z,1011.47
2022-10-28T04:50:14.959Z,1011.41
2022-10-28T04:51:14.951Z,1011.45
2022-10-28T04:52:15.901Z,1011.36
2022-10-28T04:53:14.930Z,1011.39
2022-10-28T04:54:14.914Z,1011.45
2022-10-28T04:55:14.906Z,1011.43
2022-10-28T04:56:14.893Z,1011.45
2022-10-28T04:57:14.892Z,1011.40
2022-10-28T04:58:14.869Z,1011.39
2022-10-28T04:59:14.862Z,1011.40
2022-10-28T05:00:14.847Z,1011.39
2022-10-28T05:01:14.990Z,1011.41
2022-10-28T05:02:15.008Z,1011.41
2022-10-28T05:03:14.817Z,1011.40
2022-10-28T05:04:14.800Z,1011.45
2022-10-28T05:05:14.797Z,1011.45
2022-10-28T05:06:14.778Z,1011.42
2022-10-28T05:07:15.942Z,1011.46
2022-10-28T05:08:14.756Z,1011.49
2022-10-28T05:09:14.749Z,1011.46
2022-10-28T05:10:14.733Z,1011.48
2022-10-28T05:11:14.727Z,1011.47
2022-10-28T05:12:14.721Z,1011.47
2022-10-28T05:13:14.704Z,1011.44
2022-10-28T05:14:14.688Z,1011.45
2022-10-28T05:15:14.685Z,1011.48
2022-10-28T05:16:14.671Z,1011.41
2022-10-28T05:17:14.669Z,1011.43
2022-10-28T05:18:14.644Z,1011.44
2022-10-28T05:19:14.639Z,1011.43
2022-10-28T05:20:14.624Z,1011.47
2022-10-28T05:21:14.615Z,1011.44
2022-10-28T05:22:14.660Z,1011.39
2022-10-28T05:23:14.592Z,1011.38
2022-10-28T05:24:14.576Z,1011.32
2022-10-28T05:25:14.569Z,1011.39
2022-10-28T05:26:14.553Z,1011.41
2022-10-28T05:27:14.558Z,1011.39
2022-10-28T05:28:14.539Z,1011.41
2022-10-28T05:29:14.524Z,1011.42
2022-10-28T05:30:14.510Z,1011.37
2022-10-28T05:31:14.502Z,1011.38
2022-10-28T05:32:14.501Z,1011.42
2022-10-28T05:33:14.488Z,1011.42
2022-10-28T05:34:14.470Z,1011.44
2022-10-28T05:35:14.474Z,1011.42
2022-10-28T05:36:14.479Z,1011.40
2022-10-28T05:37:14.435Z,1011.39
2022-10-28T05:38:14.429Z,1011.40
2022-10-28T05:39:14.412Z,1011.41
2022-10-28T05:40:14.395Z,1011.45
2022-10-28T05:41:14.391Z,1011.47
2022-10-28T05:42:14.374Z,1011.51
2022-10-28T05:43:14.380Z,1011.52
2022-10-28T05:44:14.352Z,1011.57
2022-10-28T05:45:14.344Z,1011.58
2022-10-28T05:46:14.331Z,1011.56
2022-10-28T05:47:14.323Z,1011.57
2022-10-28T05:48:14.317Z,1011.53
2022-10-28T05:49:14.299Z,1011.55
2022-10-28T05:50:14.285Z,1011.54
2022-10-28T05:51:14.276Z,1011.54
2022-10-28T05:52:14.261Z,1011.51
2022-10-28T05:53:14.265Z,1011.50
2022-10-28T05:54:14.255Z,1011.49
2022-10-28T05:55:14.235Z,1011.46
2022-10-28T05:56:14.219Z,1011.48
2022-10-28T05:57:14.210Z,1011.47
2022-10-28T05:58:14.204Z,1011.44
2022-10-28T05:59:14.187Z,1011.41
2022-10-28T06:00:14.172Z,1011.42
2022-10-28T06:01:14.205Z,1011.42
2022-10-28T06:02:14.149Z,1011.45
2022-10-28T06:03:14.152Z,1011.42
2022-10-28T06:04:14.171Z,1011.46
2022-10-28T06:05:14.122Z,1011.48
2022-10-28T06:06:14.110Z,1011.43
2022-10-28T06:07:14.101Z,1011.50
2022-10-28T06:08:14.113Z,1011.51
2022-10-28T06:09:14.075Z,1011.51
2022-10-28T06:10:14.064Z,1011.48
2022-10-28T06:11:12.518Z,1011.48
2022-10-28T06:12:12.503Z,1011.45
2022-10-28T06:13:12.498Z,1011.46
2022-10-28T06:14:12.498Z,1011.47
2022-10-28T06:15:12.477Z,1011.42
2022-10-28T06:16:12.461Z,1011.46
2022-10-28T06:17:12.458Z,1011.44
2022-10-28T06:18:15.450Z,1011.43
2022-10-28T06:19:12.452Z,1011.49
2022-10-28T06:20:12.422Z,1011.47
2022-10-28T06:21:12.419Z,1011.47
2022-10-28T06:22:12.399Z,1011.48
2022-10-28T06:23:12.508Z,1011.47
2022-10-28T06:24:12.420Z,1011.51
2022-10-28T06:25:12.375Z,1011.49
2022-10-28T06:26:12.358Z,1011.52
2022-10-28T06:27:12.353Z,1011.56
2022-10-28T06:28:12.339Z,1011.57
2022-10-28T06:29:12.341Z,1011.61
2022-10-28T06:30:12.315Z,1011.57
2022-10-28T06:31:12.309Z,1011.60
2022-10-28T06:32:12.304Z,1011.60
2022-10-28T06:33:12.304Z,1011.65
2022-10-28T06:34:12.285Z,1011.62
2022-10-28T06:35:12.265Z,1011.66
2022-10-28T06:36:12.262Z,1011.63
2022-10-28T06:37:12.245Z,1011.66
2022-10-28T06:38:12.250Z,1011.67
2022-10-28T06:39:12.225Z,1011.70
2022-10-28T06:40:12.228Z,1011.66
2022-10-28T06:41:12.204Z,1011.66
2022-10-28T06:42:12.197Z,1011.73
2022-10-28T06:43:12.195Z,1011.70
2022-10-28T06:44:12.199Z,1011.70
2022-10-28T06:45:12.165Z,1011.69
2022-10-28T06:46:12.150Z,1011.73
2022-10-28T06:47:13.659Z,1011.72
2022-10-28T06:48:13.654Z,1011.74
2022-10-28T06:49:13.638Z,1011.68
2022-10-28T06:50:13.623Z,1011.66
2022-10-28T06:51:13.616Z,1011.72
2022-10-28T06:52:13.602Z,1011.74
2022-10-28T06:53:13.605Z,1011.73
2022-10-28T06:54:13.583Z,1011.73
2022-10-28T06:55:13.575Z,1011.78
2022-10-28T06:56:13.560Z,1011.76
2022-10-28T06:57:13.556Z,1011.80
2022-10-28T06:58:13.556Z,1011.76
2022-10-28T06:59:13.541Z,1011.75
2022-10-28T07:00:13.522Z,1011.76
2022-10-28T07:01:13.538Z,1011.76
2022-10-28T07:02:13.584Z,1011.72
2022-10-28T07:03:13.618Z,1011.72
2022-10-28T07:04:13.478Z,1011.68
2022-10-28T07:05:13.472Z,1011.68
2022-10-28T07:07:13.453Z,1011.76
2022-10-28T07:08:13.446Z,1011.77
2022-10-28T07:09:13.434Z,1011.77
2022-10-28T07:10:13.415Z,1011.79
2022-10-28T07:11:13.411Z,1011.81
2022-10-28T07:12:13.422Z,1011.83
2022-10-28T07:13:13.395Z,1011.82
2022-10-28T07:14:13.376Z,1011.88
2022-10-28T07:15:13.366Z,1011.92
2022-10-28T07:16:13.351Z,1011.94
2022-10-28T07:17:13.346Z,1011.96
2022-10-28T07:18:13.339Z,1011.97
2022-10-28T07:19:13.323Z,1012.03
2022-10-28T07:20:13.313Z,1012.01
2022-10-28T07:21:13.305Z,1011.99
2022-10-28T07:22:13.288Z,1012.02
2022-10-28T07:23:13.292Z,1011.96
2022-10-28T07:24:13.268Z,1011.98
2022-10-28T07:25:13.331Z,1011.96
2022-10-28T07:26:13.247Z,1011.96
2022-10-28T07:27:13.385Z,1011.92
2022-10-28T07:28:13.332Z,1011.91
2022-10-28T07:29:13.219Z,1011.94
2022-10-28T07:30:13.212Z,1011.96
2022-10-28T07:31:13.200Z,1011.95
2022-10-28T07:32:13.186Z,1011.92
2022-10-28T07:33:13.186Z,1011.92
2022-10-28T07:34:13.162Z,1011.88
2022-10-28T07:35:13.297Z,1011.87
2022-10-28T07:36:13.191Z,1011.89
2022-10-28T07:37:13.156Z,1011.90
2022-10-28T07:38:13.147Z,1011.87
2022-10-28T07:39:13.190Z,1011.82
2022-10-28T07:40:13.111Z,1011.85
2022-10-28T07:41:13.092Z,1011.80
2022-10-28T07:42:13.083Z,1011.81
2022-10-28T07:43:13.165Z,1011.84
2022-10-28T07:44:13.052Z,1011.81
2022-10-28T07:45:13.047Z,1011.89
2022-10-28T07:46:13.029Z,1011.87
2022-10-28T07:47:13.031Z,1011.92
2022-10-28T07:48:13.008Z,1011.90
2022-10-28T07:49:12.998Z,1011.93
2022-10-28T07:50:12.998Z,1011.95
2022-10-28T07:51:12.975Z,1011.98
2022-10-28T07:52:12.969Z,1011.97
2022-10-28T07:53:12.999Z,1012.00
2022-10-28T07:54:12.941Z,1011.99
2022-10-28T07:55:12.929Z,1011.99
2022-10-28T07:56:12.915Z,1012.05
2022-10-28T07:57:12.915Z,1012.00
2022-10-28T07:58:12.890Z,1012.05
2022-10-28T07:59:12.883Z,1012.06
2022-10-28T08:00:12.862Z,1012.07
2022-10-28T08:01:12.999Z,1012.08
2022-10-28T08:02:12.888Z,1012.12
2022-10-28T08:03:12.829Z,1012.07
2022-10-28T08:04:12.814Z,1012.06
2022-10-28T08:05:12.812Z,1012.07
2022-10-28T08:06:12.787Z,1012.05
2022-10-28T08:07:12.789Z,1012.02
2022-10-28T08:08:12.760Z,1012.03
2022-10-28T08:09:12.751Z,1011.98
2022-10-28T08:10:12.733Z,1011.99
2022-10-28T08:11:12.725Z,1011.98
2022-10-28T08:12:12.719Z,1012.01
2022-10-28T08:13:12.698Z,1012.04
2022-10-28T08:14:12.684Z,1011.99
2022-10-28T08:15:12.673Z,1011.97
2022-10-28T08:16:12.656Z,1011.99
2022-10-28T08:17:12.657Z,1011.96
2022-10-28T08:18:12.631Z,1011.93
2022-10-28T08:19:12.623Z,1012.00
2022-10-28T08:20:12.611Z,1012.05
2022-10-28T08:21:12.599Z,1012.06
2022-10-28T08:22:12.602Z,1012.07
2022-10-28T08:23:12.578Z,1012.04
2022-10-28T08:24:12.559Z,1012.05
2022-10-28T08:25:12.550Z,1012.05
2022-10-28T08:26:12.535Z,1012.04
2022-10-28T08:27:12.536Z,1012.00
2022-10-28T08:28:12.512Z,1011.97
2022-10-28T08:29:12.507Z,1011.96
2022-10-28T08:30:12.523Z,1011.98
2022-10-28T08:31:12.685Z,1011.90
2022-10-28T08:32:12.481Z,1011.97
2022-10-28T08:33:12.523Z,1011.96
2022-10-28T08:34:12.507Z,1011.95
2022-10-28T08:35:12.438Z,1011.95
2022-10-28T08:36:12.425Z,1011.95
2022-10-28T08:37:12.497Z,1011.98
2022-10-28T08:38:12.401Z,1011.94
2022-10-28T08:39:12.393Z,1011.93
2022-10-28T08:40:12.380Z,1011.93
2022-10-28T08:41:12.370Z,1011.95
2022-10-28T08:42:12.367Z,1011.94
2022-10-28T08:43:12.352Z,1011.95
2022-10-28T08:44:12.357Z,1011.91
2022-10-28T08:45:15.635Z,1011.90
2022-10-28T08:46:12.311Z,1011.90
2022-10-28T08:47:12.315Z,1011.89
2022-10-28T08:48:12.294Z,1011.84
2022-10-28T08:49:12.284Z,1011.88
2022-10-28T08:50:12.280Z,1011.86
2022-10-28T08:51:12.263Z,1011.87
2022-10-28T08:52:12.256Z,1011.85
2022-10-28T08:53:12.242Z,1011.86
2022-10-28T08:54:12.232Z,1011.87
2022-10-28T08:55:12.219Z,1011.83
2022-10-28T08:56:12.203Z,1011.85
2022-10-28T08:57:17.115Z,1011.77
2022-10-28T08:58:12.191Z,1011.77
2022-10-28T08:59:12.174Z,1011.80
2022-10-28T09:00:12.158Z,1011.79
2022-10-28T09:01:12.239Z,1011.79
2022-10-28T09:02:12.143Z,1011.79
2022-10-28T09:03:12.132Z,1011.83
2022-10-28T09:04:12.181Z,1011.81
2022-10-28T09:05:12.109Z,1011.84
2022-10-28T09:06:12.089Z,1011.84
2022-10-28T09:07:12.091Z,1011.85
2022-10-28T09:08:12.072Z,1011.88
2022-10-28T09:09:12.063Z,1011.88
2022-10-28T09:10:12.161Z,1011.82
2022-10-28T09:11:12.040Z,1011.80
2022-10-28T09:12:12.038Z,1011.82
2022-10-28T09:13:12.018Z,1011.81
2022-10-28T09:14:12.003Z,1011.79
2022-10-28T09:15:12.010Z,1011.84
2022-10-28T09:16:13.734Z,1011.79
2022-10-28T09:17:12.016Z,1011.82
2022-10-28T09:18:11.963Z,1011.85
2022-10-28T09:19:11.954Z,1011.86
2022-10-28T09:20:11.945Z,1011.85
2022-10-28T09:21:11.934Z,1011.94
2022-10-28T09:22:11.917Z,1011.87
2022-10-28T09:23:11.919Z,1011.86
2022-10-28T09:24:11.901Z,1011.79
2022-10-28T09:25:11.889Z,1011.76
2022-10-28T09:26:11.879Z,1011.81
2022-10-28T09:27:11.865Z,1011.79
2022-10-28T09:28:11.860Z,1011.80
2022-10-28T09:29:11.900Z,1011.79
2022-10-28T09:30:11.827Z,1011.76
2022-10-28T09:31:11.822Z,1011.76
2022-10-28T09:32:11.807Z,1011.75
2022-10-28T09:33:11.808Z,1011.79
2022-10-28T09:34:11.784Z,1011.76
2022-10-28T09:35:11.780Z,1011.73
2022-10-28T09:36:11.765Z,1011.73
2022-10-28T09:37:11.753Z,1011.77
2022-10-28T09:38:11.749Z,1011.75
2022-10-28T09:39:11.874Z,1011.74
2022-10-28T09:40:11.831Z,1011.78
2022-10-28T09:41:11.790Z,1011.81
2022-10-28T09:42:11.783Z,1011.73
2022-10-28T09:43:11.763Z,1011.72
2022-10-28T09:44:11.679Z,1011.70
2022-10-28T09:45:11.690Z,1011.67
2022-10-28T09:46:11.664Z,1011.68
2022-10-28T09:47:11.639Z,1011.72
2022-10-28T09:48:11.644Z,1011.66
2022-10-28T09:49:11.619Z,1011.65
2022-10-28T09:50:11.614Z,1011.66
2022-10-28T09:51:11.605Z,1011.66
2022-10-28T09:52:15.268Z,1011.61
2022-10-28T09:53:11.583Z,1011.69
2022-10-28T09:54:11.568Z,1011.68
2022-10-28T09:55:11.550Z,1011.66
2022-10-28T09:56:11.547Z,1011.75
2022-10-28T09:57:13.755Z,1011.76
2022-10-28T09:58:11.533Z,1011.79
2022-10-28T09:59:11.506Z,1011.73
2022-10-28T10:00:11.498Z,1011.73
2022-10-28T10:01:11.549Z,1011.77
2022-10-28T10:02:11.535Z,1011.80
2022-10-28T10:03:11.494Z,1011.78
2022-10-28T10:04:11.453Z,1011.82
2022-10-28T10:05:16.073Z,1011.83
2022-10-28T10:06:11.437Z,1011.79
2022-10-28T10:07:11.422Z,1011.82
2022-10-28T10:08:11.416Z,1011.84
2022-10-28T10:09:11.395Z,1011.85
2022-10-28T10:10:11.406Z,1011.83
2022-10-28T10:11:11.391Z,1011.84
2022-10-28T10:12:11.364Z,1011.82
2022-10-28T10:13:11.354Z,1011.88
2022-10-28T10:14:11.345Z,1011.87
2022-10-28T10:15:11.324Z,1011.86
2022-10-28T10:16:11.317Z,1011.85
2022-10-28T10:17:11.301Z,1011.85
2022-10-28T10:18:11.305Z,1011.85
2022-10-28T10:19:11.278Z,1011.84
2022-10-28T10:20:11.277Z,1011.84
2022-10-28T10:21:11.255Z,1011.82
2022-10-28T10:22:11.252Z,1011.77
2022-10-28T10:23:11.245Z,1011.79
2022-10-28T10:24:11.228Z,1011.79
2022-10-28T10:25:11.211Z,1011.80
2022-10-28T10:26:12.441Z,1011.75
2022-10-28T10:27:11.190Z,1011.76
2022-10-28T10:28:11.191Z,1011.79
2022-10-28T10:29:11.167Z,1011.78
2022-10-28T10:30:11.159Z,1011.78
2022-10-28T10:31:11.145Z,1011.80
2022-10-28T10:32:11.153Z,1011.75
2022-10-28T10:33:11.121Z,1011.73
2022-10-28T10:34:11.117Z,1011.79
2022-10-28T10:35:11.099Z,1011.78
2022-10-28T10:36:11.092Z,1011.77
2022-10-28T10:37:11.078Z,1011.76
2022-10-28T10:38:11.082Z,1011.80
2022-10-28T10:39:11.062Z,1011.79
2022-10-28T10:40:11.046Z,1011.76
2022-10-28T10:41:11.030Z,1011.79
2022-10-28T10:42:11.037Z,1011.78
2022-10-28T10:43:14.120Z,1011.79
2022-10-28T10:44:11.007Z,1011.77
2022-10-28T10:45:10.991Z,1011.78
2022-10-28T10:46:10.978Z,1011.71
2022-10-28T10:47:10.970Z,1011.76
2022-10-28T10:48:10.969Z,1011.75
2022-10-28T10:49:10.949Z,1011.78
2022-10-28T10:50:10.931Z,1011.80
2022-10-28T10:51:10.925Z,1011.82
2022-10-28T10:52:10.912Z,1011.83
2022-10-28T10:53:10.915Z,1011.84
2022-10-28T10:54:10.888Z,1011.75
2022-10-28T10:55:10.882Z,1011.78
2022-10-28T10:56:10.884Z,1011.77
2022-10-28T10:57:10.859Z,1011.79
2022-10-28T10:58:10.851Z,1011.79
2022-10-28T10:59:10.840Z,1011.74
2022-10-28T11:00:10.823Z,1011.77
2022-10-28T11:01:10.865Z,1011.82
2022-10-28T11:02:10.955Z,1011.86
2022-10-28T11:03:10.841Z,1011.80
2022-10-28T11:04:10.779Z,1011.87
2022-10-28T11:05:10.773Z,1011.86
2022-10-28T11:06:23.109Z,1011.79
2022-10-28T11:07:10.755Z,1011.81
2022-10-28T11:08:10.742Z,1011.72
2022-10-28T11:09:10.788Z,1011.72
2022-10-28T11:10:10.714Z,1011.69
2022-10-28T11:11:10.705Z,1011.67
2022-10-28T11:12:10.691Z,1011.62
2022-10-28T11:13:10.693Z,1011.65
2022-10-28T11:14:10.729Z,1011.64
2022-10-28T11:15:10.659Z,1011.64
2022-10-28T11:16:10.676Z,1011.65
2022-10-28T11:17:10.639Z,1011.67
2022-10-28T11:18:10.635Z,1011.63
2022-10-28T11:19:10.618Z,1011.67
2022-10-28T11:20:10.622Z,1011.63
2022-10-28T11:21:10.715Z,1011.68
2022-10-28T11:22:10.597Z,1011.66
2022-10-28T11:23:10.582Z,1011.67
2022-10-28T11:24:10.556Z,1011.63
2022-10-28T11:25:10.615Z,1011.63
2022-10-28T11:26:10.537Z,1011.62
2022-10-28T11:27:10.544Z,1011.64
2022-10-28T11:28:10.513Z,1011.62
2022-10-28T11:29:10.509Z,1011.64
2022-10-28T11:30:10.492Z,1011.59
2022-10-28T11:31:10.488Z,1011.59
2022-10-28T11:32:10.469Z,1011.62
2022-10-28T11:33:28.957Z,1011.60
2022-10-28T11:34:10.455Z,1011.62
2022-10-28T11:35:10.440Z,1011.55
2022-10-28T11:36:10.424Z,1011.53
2022-10-28T11:37:10.419Z,1011.53
2022-10-28T11:38:10.411Z,1011.50
2022-10-28T11:39:10.396Z,1011.50
2022-10-28T11:40:10.389Z,1011.47
2022-10-28T11:41:10.375Z,1011.45
2022-10-28T11:42:10.360Z,1011.46
2022-10-28T11:43:10.362Z,1011.41
2022-10-28T11:44:10.337Z,1011.42
2022-10-28T11:45:10.335Z,1011.41
2022-10-28T11:46:10.320Z,1011.43
2022-10-28T11:47:10.316Z,1011.39
2022-10-28T11:48:10.302Z,1011.42
2022-10-28T11:49:10.285Z,1011.42
2022-10-28T11:50:10.276Z,1011.41
2022-10-28T11:51:10.263Z,1011.43
2022-10-28T11:52:10.256Z,1011.39
2022-10-28T11:53:10.241Z,1011.43
2022-10-28T11:54:10.224Z,1011.36
2022-10-28T11:55:10.219Z,1011.35
2022-10-28T11:56:10.205Z,1011.36
2022-10-28T11:57:10.203Z,1011.33
2022-10-28T11:58:10.220Z,1011.35
2022-10-28T11:59:10.173Z,1011.29
2022-10-28T12:00:10.161Z,1011.33
2022-10-28T12:01:10.253Z,1011.32
2022-10-28T12:02:10.252Z,1011.35
2022-10-28T12:03:10.196Z,1011.35
2022-10-28T12:04:10.117Z,1011.32
2022-10-28T12:05:10.150Z,1011.26
2022-10-28T12:06:10.095Z,1011.22
2022-10-28T12:07:10.090Z,1011.27